Time;durP1;ratioP1;P1;durP2;ratioP2;P2;SDS_P1;SDS_P2;PMS_P1;PMS_P2;Temp;Humidity;BMP_temperature;BMP_pressure;BME280_temperature;BME280_humidity;BME280_pressure;Samples;Min_cycle;Max_cycle;Signal;HPM_P1;HPM_P2
2021/05/21 00:01:15;;;;;;;2.30;1.80;;;;;;;14.06;51.54;96517.22;5092831;28;20197;-67
2021/05/21 00:03:41;;;;;;;2.20;2.10;;;;;;;14.01;51.40;96506.44;5094704;28;20272;-68
2021/05/21 00:06:07;;;;;;;2.33;2.10;;;;;;;14.01;51.40;96504.63;5092725;28;20352;-69
2021/05/21 00:08:33;;;;;;;2.30;2.10;;;;;;;14.02;51.23;96510.69;5094851;28;20186;-68
2021/05/21 00:10:58;;;;;;;3.30;1.90;;;;;;;14.13;50.94;96508.38;5094471;28;20538;-68
2021/05/21 00:13:24;;;;;;;3.30;1.93;;;;;;;14.07;51.23;96501.22;5087777;28;20216;-66
2021/05/21 00:15:50;;;;;;;2.50;2.00;;;;;;;13.99;51.24;96504.00;5095358;28;20197;-66
2021/05/21 00:18:16;;;;;;;4.30;2.07;;;;;;;13.99;51.14;96501.38;5094733;28;20660;-69
2021/05/21 00:20:41;;;;;;;1.93;1.77;;;;;;;13.94;51.52;96495.84;5107244;28;20223;-68
2021/05/21 00:23:07;;;;;;;1.97;1.77;;;;;;;13.87;51.42;96492.38;5106380;28;20636;-67
2021/05/21 00:25:32;;;;;;;2.90;1.90;;;;;;;13.94;51.03;96486.16;5094537;28;20636;-69
2021/05/21 00:27:58;;;;;;;2.70;2.00;;;;;;;13.83;51.44;96487.47;5094584;28;20629;-67
2021/05/21 00:30:23;;;;;;;1.97;1.70;;;;;;;13.88;51.12;96483.47;5094600;28;20205;-66
2021/05/21 00:32:49;;;;;;;3.20;1.90;;;;;;;13.91;51.15;96473.34;5094673;28;20186;-68
2021/05/21 00:35:15;;;;;;;2.70;1.80;;;;;;;13.86;51.17;96470.47;5091705;28;20196;-68
2021/05/21 00:37:40;;;;;;;4.40;2.13;;;;;;;13.88;51.18;96472.91;5085569;28;20198;-67
2021/05/21 00:40:07;;;;;;;4.17;1.53;;;;;;;13.96;50.94;96465.69;5092167;28;20265;-68
2021/05/21 00:42:33;;;;;;;2.27;1.80;;;;;;;13.75;51.44;96469.19;5092475;28;20177;-68
2021/05/21 00:44:59;;;;;;;3.10;2.00;;;;;;;13.92;51.11;96469.72;5093338;28;20424;-67
2021/05/21 00:47:25;;;;;;;2.37;1.83;;;;;;;13.94;50.92;96470.34;5087050;28;20517;-66
2021/05/21 00:49:50;;;;;;;2.03;1.83;;;;;;;13.83;51.00;96460.34;5088977;28;20889;-68
2021/05/21 00:52:17;;;;;;;1.80;1.70;;;;;;;13.96;50.67;96455.16;5093244;28;20517;-68
2021/05/21 00:54:44;;;;;;;1.90;1.67;;;;;;;13.90;50.98;96441.94;5075308;28;20189;-68
2021/05/21 00:57:10;;;;;;;2.90;2.00;;;;;;;13.90;50.73;96439.31;5092746;28;20526;-68
2021/05/21 00:59:35;;;;;;;3.77;2.17;;;;;;;13.99;50.91;96438.16;5093899;28;20455;-67
2021/05/21 01:02:02;;;;;;;1.83;1.70;;;;;;;13.92;50.74;96446.00;5092320;28;20288;-67
2021/05/21 01:04:27;;;;;;;3.50;2.20;;;;;;;13.88;51.19;96436.84;5092067;28;20174;-66
2021/05/21 01:06:53;;;;;;;2.37;1.90;;;;;;;13.92;50.90;96427.56;5093489;28;20415;-68
2021/05/21 01:09:19;;;;;;;1.97;1.70;;;;;;;13.94;51.16;96420.28;5093557;28;20286;-67
2021/05/21 01:11:44;;;;;;;3.03;2.00;;;;;;;13.96;50.88;96394.56;5091640;28;20205;-67
2021/05/21 01:14:10;;;;;;;2.40;2.00;;;;;;;13.85;51.13;96407.47;5092330;28;20264;-67
2021/05/21 01:16:35;;;;;;;1.83;1.67;;;;;;;13.76;51.15;96419.94;5092790;28;20216;-68
2021/05/21 01:19:03;;;;;;;2.27;2.03;;;;;;;13.91;51.00;96409.34;5093460;28;20234;-68
2021/05/21 01:21:35;;;;;;;2.33;1.67;;;;;;;13.85;51.18;96408.28;5093085;28;20238;-68
2021/05/21 01:24:05;;;;;;;2.57;1.60;;;;;;;13.86;51.35;96415.16;5092755;28;20431;-66
2021/05/21 01:26:31;;;;;;;2.10;1.90;;;;;;;13.75;51.44;96420.94;5092798;28;20513;-66
2021/05/21 01:28:56;;;;;;;2.30;2.10;;;;;;;13.78;51.14;96417.94;5092893;28;20457;-67
2021/05/21 01:31:23;;;;;;;2.80;1.73;;;;;;;13.66;51.54;96417.66;5091003;28;20198;-67
2021/05/21 01:33:49;;;;;;;2.60;1.80;;;;;;;13.62;51.66;96413.78;5092308;28;20713;-68
2021/05/21 01:36:15;;;;;;;2.30;1.97;;;;;;;13.83;51.16;96411.09;5091220;28;20462;-68
2021/05/21 01:39:06;;;;;;;3.73;1.90;;;;;;;13.75;51.59;96405.16;5091461;28;20462;-68
2021/05/21 01:41:34;;;;;;;1.73;1.63;;;;;;;13.65;51.88;96408.94;5092999;28;20715;-68
2021/05/21 01:44:00;;;;;;;1.97;1.77;;;;;;;13.67;51.48;96395.59;5091950;28;20424;-68
2021/05/21 01:46:25;;;;;;;3.20;2.00;;;;;;;13.72;51.61;96389.75;5086063;28;20412;-66
2021/05/21 01:48:51;;;;;;;2.33;1.47;;;;;;;13.75;51.48;96400.72;5091802;28;20178;-68
2021/05/21 01:51:17;;;;;;;1.93;1.70;;;;;;;13.73;51.39;96386.13;5090540;28;20205;-68
2021/05/21 01:53:42;;;;;;;1.70;1.60;;;;;;;13.78;50.94;96383.72;5075559;28;20209;-68
2021/05/21 01:56:08;;;;;;;1.73;1.63;;;;;;;13.72;51.21;96381.88;5092259;28;20190;-67
2021/05/21 01:58:33;;;;;;;5.33;1.50;;;;;;;13.75;51.52;96384.09;5092608;28;20595;-67
2021/05/21 02:00:59;;;;;;;1.80;1.70;;;;;;;13.63;51.52;96382.00;5091926;28;20228;-70
2021/05/21 02:03:27;;;;;;;2.43;1.67;;;;;;;13.59;51.56;96387.84;5091930;28;20572;-67
2021/05/21 02:05:53;;;;;;;3.20;1.80;;;;;;;13.62;51.87;96377.72;5089468;28;20640;-67
2021/05/21 02:08:21;;;;;;;2.47;1.70;;;;;;;13.57;51.97;96376.66;5092049;28;20419;-67
2021/05/21 02:10:47;;;;;;;1.80;1.70;;;;;;;13.63;51.42;96375.91;5092087;28;20197;-67
2021/05/21 02:13:12;;;;;;;1.70;1.60;;;;;;;13.59;51.80;96370.22;5092002;28;20431;-66
2021/05/21 02:15:38;;;;;;;2.10;1.80;;;;;;;13.61;51.79;96376.09;5092240;28;20178;-67
2021/05/21 02:18:04;;;;;;;4.90;1.80;;;;;;;13.70;51.67;96365.44;5091759;28;20301;-68
2021/05/21 02:20:29;;;;;;;1.60;1.50;;;;;;;13.57;52.04;96353.81;5092190;28;20198;-68
2021/05/21 02:22:55;;;;;;;2.70;1.90;;;;;;;13.58;51.80;96344.91;5090467;28;20216;-68
2021/05/21 02:25:20;;;;;;;1.70;1.60;;;;;;;13.47;52.10;96346.25;5073051;28;20285;-68
2021/05/21 02:27:46;;;;;;;1.70;1.60;;;;;;;13.36;52.30;96339.66;5091104;28;20212;-68
2021/05/21 02:30:12;;;;;;;1.60;1.50;;;;;;;13.46;52.02;96346.44;5091821;28;20201;-67
2021/05/21 02:32:38;;;;;;;2.13;1.70;;;;;;;13.51;51.90;96338.78;5091854;28;20648;-68
2021/05/21 02:35:05;;;;;;;2.07;1.60;;;;;;;13.41;52.25;96335.66;5090780;28;20481;-67
2021/05/21 02:37:31;;;;;;;1.60;1.50;;;;;;;13.46;51.91;96333.28;5091304;28;20452;-68
2021/05/21 02:39:56;;;;;;;6.93;1.50;;;;;;;13.48;52.00;96328.66;5095773;28;20426;-67
2021/05/21 02:42:22;;;;;;;1.47;1.37;;;;;;;13.45;51.78;96324.56;5089214;28;20201;-66
2021/05/21 02:44:47;;;;;;;1.73;1.60;;;;;;;13.43;51.96;96318.66;5086161;28;20182;-68
2021/05/21 02:47:13;;;;;;;1.83;1.60;;;;;;;13.44;51.82;96311.59;5090901;28;20256;-67
2021/05/21 02:49:38;;;;;;;1.67;1.57;;;;;;;13.39;52.08;96311.31;5092419;28;20177;-67
2021/05/21 02:52:04;;;;;;;4.20;2.23;;;;;;;13.15;52.53;96311.56;5098401;28;20229;-67
2021/05/21 02:54:30;;;;;;;2.80;1.73;;;;;;;13.00;52.39;96311.63;5072304;28;20174;-67
2021/05/21 02:56:55;;;;;;;2.70;1.90;;;;;;;13.05;52.40;96306.63;5098931;28;20254;-67
2021/05/21 02:59:21;;;;;;;2.17;1.50;;;;;;;13.12;52.54;96306.69;5092922;28;20183;-67
2021/05/21 03:01:47;;;;;;;5.00;1.70;;;;;;;13.03;52.79;96307.84;5091472;28;20199;-66
2021/05/21 03:04:12;;;;;;;3.13;1.43;;;;;;;12.99;52.64;96303.94;5071267;28;20194;-67
2021/05/21 03:06:38;;;;;;;2.43;1.60;;;;;;;13.24;52.01;96309.59;5086307;28;20203;-67
2021/05/21 03:09:04;;;;;;;4.10;1.13;;;;;;;13.26;51.94;96307.59;5090264;28;20190;-67
2021/05/21 03:11:30;;;;;;;2.30;1.30;;;;;;;13.26;52.16;96304.16;5066594;28;20224;-68
2021/05/21 03:13:55;;;;;;;4.67;1.40;;;;;;;13.29;51.74;96295.91;5090173;28;20814;-68
2021/05/21 03:16:22;;;;;;;4.40;1.33;;;;;;;12.89;52.48;96297.19;5074301;28;20225;-67
2021/05/21 03:18:47;;;;;;;5.13;1.60;;;;;;;13.14;51.98;96285.44;5080527;28;20270;-67
2021/05/21 03:21:13;;;;;;;1.30;1.20;;;;;;;13.08;52.06;96278.34;5078791;28;20920;-68
2021/05/21 03:23:38;;;;;;;4.20;1.83;;;;;;;13.06;52.15;96267.97;5095362;28;20257;-67
2021/05/21 03:26:04;;;;;;;1.43;1.33;;;;;;;12.99;51.97;96265.31;5063257;28;20597;-67
2021/05/21 03:28:30;;;;;;;2.77;1.47;;;;;;;13.21;51.99;96254.75;5076719;28;20193;-67
2021/05/21 03:30:55;;;;;;;7.23;1.70;;;;;;;13.15;51.74;96252.88;5079053;28;20256;-70
2021/05/21 03:33:21;;;;;;;6.60;1.43;;;;;;;13.14;51.63;96249.44;5076028;28;20290;-67
2021/05/21 03:35:47;;;;;;;16.97;1.60;;;;;;;12.83;52.57;96255.88;5082125;28;20380;-68
2021/05/21 03:38:12;;;;;;;1.50;1.40;;;;;;;13.14;51.75;96251.25;5023800;28;20202;-67
2021/05/21 03:40:40;;;;;;;1.30;1.20;;;;;;;12.97;52.06;96256.81;5087560;28;20228;-67
2021/05/21 03:43:06;;;;;;;1.40;1.30;;;;;;;13.22;51.73;96253.75;5084477;28;20263;-67
2021/05/21 03:45:32;;;;;;;2.13;1.57;;;;;;;13.15;51.76;96258.13;5083132;28;20421;-67
2021/05/21 03:47:58;;;;;;;1.33;1.23;;;;;;;13.01;51.71;96260.66;5074806;28;20425;-67
2021/05/21 03:50:24;;;;;;;1.40;1.30;;;;;;;13.09;52.02;96262.34;5077237;28;20966;-65
2021/05/21 03:52:50;;;;;;;3.20;1.60;;;;;;;12.94;52.74;96253.72;5074761;28;20453;-68
2021/05/21 03:55:17;;;;;;;2.13;1.60;;;;;;;13.03;52.19;96250.78;5071561;28;20182;-68
2021/05/21 03:57:42;;;;;;;2.30;1.27;;;;;;;12.94;52.09;96256.34;5075951;28;20515;-67
2021/05/21 04:00:10;;;;;;;2.30;1.60;;;;;;;13.14;51.68;96254.72;5082283;28;20461;-67
2021/05/21 04:02:36;;;;;;;1.73;1.50;;;;;;;13.09;51.65;96251.03;5074572;28;20198;-68
2021/05/21 04:05:03;;;;;;;1.80;1.30;;;;;;;12.98;52.11;96254.97;5075167;28;20428;-67
2021/05/21 04:07:28;;;;;;;1.30;1.10;;;;;;;13.18;51.59;96248.03;5072215;28;20259;-68
2021/05/21 04:09:54;;;;;;;1.57;1.47;;;;;;;13.07;51.95;96243.31;5074495;28;20432;-67
2021/05/21 04:12:19;;;;;;;1.27;1.17;;;;;;;12.99;52.13;96244.25;5065852;28;20198;-67
2021/05/21 04:14:45;;;;;;;2.10;1.50;;;;;;;12.90;52.15;96237.53;5073345;28;20664;-67
2021/05/21 04:17:10;;;;;;;2.10;1.40;;;;;;;13.12;51.26;96233.03;5073734;28;20206;-67
2021/05/21 04:19:36;;;;;;;3.10;1.23;;;;;;;12.78;52.18;96228.53;5074316;28;20273;-69
2021/05/21 04:22:02;;;;;;;4.60;1.20;;;;;;;13.10;51.40;96226.34;5073742;28;20228;-67
2021/05/21 04:24:27;;;;;;;2.00;1.30;;;;;;;12.96;51.57;96221.00;5073665;28;20178;-67
2021/05/21 04:26:53;;;;;;;2.70;1.23;;;;;;;13.03;51.42;96224.47;5073897;28;20636;-67
2021/05/21 04:29:18;;;;;;;1.20;1.10;;;;;;;13.27;50.73;96219.75;5073443;28;20178;-67
2021/05/21 04:31:44;;;;;;;2.80;1.17;;;;;;;13.50;49.92;96223.97;5073485;28;20683;-68
2021/05/21 04:34:09;;;;;;;1.33;1.23;;;;;;;13.47;50.16;96224.38;5072628;28;20269;-67
2021/05/21 04:36:35;;;;;;;1.40;1.27;;;;;;;13.51;49.87;96228.22;5073504;28;20202;-68
2021/05/21 04:39:01;;;;;;;2.60;1.30;;;;;;;13.70;49.69;96212.72;5073572;28;20179;-66
2021/05/21 04:41:26;;;;;;;4.17;1.50;;;;;;;13.74;49.70;96220.03;5073548;28;20206;-67
2021/05/21 04:43:53;;;;;;;1.60;1.30;;;;;;;13.80;49.07;96223.72;5081599;28;20185;-67
2021/05/21 04:46:20;;;;;;;1.73;1.63;;;;;;;13.74;49.71;96213.94;5081982;28;20193;-67
2021/05/21 04:48:45;;;;;;;1.70;1.50;;;;;;;13.70;49.53;96213.53;5069654;28;20576;-68
2021/05/21 04:51:11;;;;;;;3.13;1.90;;;;;;;13.89;48.73;96214.63;5069273;28;20441;-67
2021/05/21 04:53:40;;;;;;;3.50;1.60;;;;;;;13.75;49.37;96211.13;5059339;28;20175;-67
2021/05/21 04:56:06;;;;;;;4.90;1.23;;;;;;;13.89;49.04;96214.63;5060251;28;20183;-67
2021/05/21 04:58:31;;;;;;;2.20;1.23;;;;;;;13.96;48.83;96202.31;5063049;28;20420;-66
2021/05/21 05:00:57;;;;;;;4.27;2.13;;;;;;;14.06;48.86;96207.16;5073836;28;20538;-67
2021/05/21 05:03:23;;;;;;;2.70;1.10;;;;;;;14.18;48.25;96199.50;5074011;28;20186;-67
2021/05/21 05:05:48;;;;;;;1.53;1.30;;;;;;;14.22;48.29;96194.66;5072783;28;20186;-67
2021/05/21 05:08:15;;;;;;;1.50;1.40;;;;;;;14.34;47.75;96195.69;5075419;28;20438;-68
2021/05/21 05:10:42;;;;;;;3.63;1.17;;;;;;;14.35;47.65;96186.75;5070767;28;20310;-67
2021/05/21 05:13:08;;;;;;;1.30;1.10;;;;;;;14.53;47.24;96190.63;5065701;28;20478;-66
2021/05/21 05:15:35;;;;;;;2.93;1.27;;;;;;;14.70;46.87;96177.88;5072625;28;20464;-65
2021/05/21 05:18:04;;;;;;;1.20;1.03;;;;;;;14.73;46.43;96186.19;5071757;28;20456;-67
2021/05/21 05:20:30;;;;;;;1.87;1.60;;;;;;;14.89;46.40;96177.06;5063169;28;20947;-67
2021/05/21 05:22:56;;;;;;;2.13;1.80;;;;;;;15.08;46.04;96174.59;5068820;28;20483;-67
2021/05/21 05:25:22;;;;;;;2.43;1.37;;;;;;;15.03;45.89;96169.13;5074351;28;20826;-67
2021/05/21 05:27:50;;;;;;;4.00;1.40;;;;;;;15.06;45.74;96168.72;5073311;28;20503;-67
2021/05/21 05:30:16;;;;;;;2.20;1.40;;;;;;;15.10;45.81;96159.38;5072740;28;20486;-69
2021/05/21 05:32:42;;;;;;;3.07;1.23;;;;;;;15.14;45.65;96160.56;5073934;28;20421;-69
2021/05/21 05:35:08;;;;;;;4.00;1.20;;;;;;;15.27;45.05;96166.81;5081435;28;20424;-69
2021/05/21 05:37:33;;;;;;;2.70;1.37;;;;;;;15.27;44.95;96164.19;5091780;28;20209;-67
2021/05/21 05:39:59;;;;;;;2.00;1.30;;;;;;;15.36;45.16;96157.69;5093264;28;20500;-68
2021/05/21 05:42:25;;;;;;;2.20;1.20;;;;;;;15.47;44.94;96153.56;5092500;28;20229;-67
2021/05/21 05:44:50;;;;;;;2.90;1.40;;;;;;;15.50;44.61;96161.06;5092918;28;20177;-68
2021/05/21 05:47:16;;;;;;;2.10;1.40;;;;;;;15.43;44.82;96152.38;5084880;28;20177;-68
2021/05/21 05:49:41;;;;;;;3.63;1.80;;;;;;;15.64;44.49;96154.72;5095713;28;20182;-69
2021/05/21 05:52:08;;;;;;;2.73;1.47;;;;;;;15.57;44.35;96158.41;5089522;28;20564;-68
2021/05/21 05:54:34;;;;;;;5.50;1.53;;;;;;;15.70;44.72;96158.34;5092963;28;20174;-68
2021/05/21 05:57:00;;;;;;;2.23;1.40;;;;;;;15.75;44.23;96153.25;5093286;28;20475;-68
2021/05/21 05:59:27;;;;;;;5.73;1.87;;;;;;;16.04;43.97;96152.94;5084550;28;20186;-68
2021/05/21 06:01:52;;;;;;;5.33;1.30;;;;;;;16.17;43.43;96149.38;5077529;28;20197;-69
2021/05/21 06:04:18;;;;;;;1.70;1.13;;;;;;;16.24;43.09;96147.53;5073961;28;20449;-69
2021/05/21 06:06:44;;;;;;;3.97;1.30;;;;;;;16.31;42.89;96145.63;5087358;28;20231;-68
2021/05/21 06:09:09;;;;;;;1.67;1.13;;;;;;;16.31;42.63;96142.97;5090383;28;20187;-69
2021/05/21 06:11:36;;;;;;;1.50;1.30;;;;;;;16.35;42.75;96144.19;5092274;28;20230;-67
2021/05/21 06:14:02;;;;;;;1.83;1.20;;;;;;;16.52;42.51;96141.81;5092690;28;20217;-69
2021/05/21 06:16:28;;;;;;;2.73;0.93;;;;;;;16.29;42.71;96155.59;5092423;28;20458;-66
2021/05/21 06:18:54;;;;;;;1.90;0.97;;;;;;;16.41;42.30;96137.22;5075400;28;20413;-68
2021/05/21 06:21:19;;;;;;;2.47;1.17;;;;;;;16.66;42.28;96131.91;5059870;28;20263;-66
2021/05/21 06:23:45;;;;;;;1.90;1.43;;;;;;;16.89;41.98;96135.78;5087070;28;20181;-65
2021/05/21 06:28:47;;;;;;;3.70;1.07;;;;;;;16.73;42.07;96129.22;5090619;28;20435;-67
2021/05/21 06:31:12;;;;;;;3.03;1.40;;;;;;;16.61;42.33;96129.13;5091923;28;20454;-68
2021/05/21 06:33:39;;;;;;;3.00;1.17;;;;;;;16.59;42.44;96123.25;5081956;28;20414;-67
2021/05/21 06:36:05;;;;;;;6.00;1.20;;;;;;;16.49;42.51;96128.22;5078793;28;20178;-68
2021/05/21 06:38:30;;;;;;;2.00;1.43;;;;;;;16.13;43.23;96126.00;5084598;28;21066;-68
2021/05/21 06:40:56;;;;;;;3.03;1.10;;;;;;;16.51;42.51;96123.50;5076042;28;20664;-67
2021/05/21 06:43:22;;;;;;;4.10;1.20;;;;;;;16.61;42.33;96115.91;5081797;28;20186;-66
2021/05/21 06:45:50;;;;;;;3.90;1.20;;;;;;;16.67;42.08;96115.03;5064868;28;20222;-67
2021/05/21 06:48:16;;;;;;;4.80;1.50;;;;;;;16.85;41.44;96116.88;5086385;28;20209;-67
2021/05/21 06:50:42;;;;;;;2.03;1.53;;;;;;;16.74;41.91;96113.16;5089379;28;20431;-69
2021/05/21 06:53:08;;;;;;;2.40;1.40;;;;;;;17.01;41.46;96107.59;5096933;28;20182;-69
2021/05/21 06:55:34;;;;;;;2.80;1.30;;;;;;;17.29;40.95;96100.19;5103839;28;20443;-67
2021/05/21 06:57:59;;;;;;;3.13;1.67;;;;;;;17.39;40.96;96097.03;5084945;28;20202;-68
2021/05/21 07:00:25;;;;;;;2.30;1.40;;;;;;;17.35;40.81;96092.16;5096041;28;20234;-67
2021/05/21 07:02:51;;;;;;;4.20;1.20;;;;;;;17.24;41.19;96090.25;5097588;28;20173;-69
2021/05/21 07:05:16;;;;;;;6.63;1.60;;;;;;;17.29;41.06;96098.31;5078891;28;20190;-67
2021/05/21 07:07:42;;;;;;;3.63;1.00;;;;;;;17.37;41.16;96091.13;5084882;28;20602;-68
2021/05/21 07:10:09;;;;;;;5.87;1.00;;;;;;;17.19;41.25;96084.81;5066828;28;20246;-69
2021/05/21 07:12:34;;;;;;;2.30;1.10;;;;;;;17.29;41.28;96089.59;5086871;28;20205;-66
2021/05/21 07:15:00;;;;;;;2.27;1.60;;;;;;;17.34;41.02;96095.84;5088429;28;20424;-67
2021/05/21 07:17:26;;;;;;;2.60;1.10;;;;;;;17.24;41.35;96084.97;5096978;28;20212;-66
2021/05/21 07:19:52;;;;;;;6.33;1.10;;;;;;;17.10;41.20;96086.16;5095284;28;20246;-67
2021/05/21 07:22:17;;;;;;;3.60;1.00;;;;;;;17.09;40.96;96092.47;5082453;28;20378;-65
2021/05/21 07:24:43;;;;;;;3.97;1.47;;;;;;;17.08;41.22;96082.91;5082947;28;20424;-68
2021/05/21 07:27:09;;;;;;;3.13;1.20;;;;;;;17.17;40.80;96087.69;5091432;28;20196;-66
2021/05/21 07:29:34;;;;;;;4.30;1.40;;;;;;;17.64;40.28;96087.09;5079638;28;20197;-68
2021/05/21 07:32:00;;;;;;;2.17;1.10;;;;;;;17.38;40.57;96082.94;5085427;28;20201;-67
2021/05/21 07:34:26;;;;;;;1.83;1.10;;;;;;;17.35;40.66;96083.38;5078191;28;20209;-68
2021/05/21 07:36:52;;;;;;;4.03;1.30;;;;;;;17.46;40.78;96076.53;5090300;28;20224;-67
2021/05/21 07:39:18;;;;;;;4.70;1.40;;;;;;;17.65;40.34;96078.09;5091256;28;20547;-67
2021/05/21 07:41:44;;;;;;;5.70;1.27;;;;;;;17.32;40.55;96078.56;5091511;28;20451;-67
2021/05/21 07:44:11;;;;;;;1.60;1.10;;;;;;;16.66;41.74;96086.97;5095248;28;20214;-67
2021/05/21 07:46:37;;;;;;;2.60;1.37;;;;;;;16.65;41.57;96074.75;5084750;28;20434;-68
2021/05/21 07:49:03;;;;;;;2.43;0.90;;;;;;;16.67;41.95;96080.63;5089281;28;20424;-68
2021/05/21 07:51:31;;;;;;;4.20;1.00;;;;;;;17.14;40.98;96087.28;5090114;28;20284;-68
2021/05/21 07:53:57;;;;;;;3.30;1.00;;;;;;;17.22;41.01;96087.03;5062285;28;20430;-67
2021/05/21 07:56:22;;;;;;;1.27;1.00;;;;;;;17.35;40.84;96088.69;5055174;28;20443;-69
2021/05/21 07:58:48;;;;;;;1.90;1.17;;;;;;;17.47;40.51;96081.59;5055039;28;20187;-66
2021/05/21 08:01:14;;;;;;;2.20;1.27;;;;;;;17.29;40.52;96084.28;5089226;28;20386;-67
2021/05/21 08:03:39;;;;;;;2.03;1.03;;;;;;;17.49;40.13;96073.47;5073156;28;20591;-71
2021/05/21 08:06:05;;;;;;;3.87;1.30;;;;;;;17.31;40.63;96067.16;5082979;28;20194;-67
2021/05/21 08:08:32;;;;;;;2.07;1.27;;;;;;;17.63;40.16;96064.31;5071843;28;20170;-68
2021/05/21 08:11:00;;;;;;;4.23;1.47;;;;;;;17.44;40.31;96047.66;5073394;28;20646;-68
2021/05/21 08:13:26;;;;;;;2.80;1.30;;;;;;;17.29;40.84;96042.72;5088000;28;20787;-68
2021/05/21 08:15:52;;;;;;;3.93;1.40;;;;;;;17.58;40.34;96045.63;5080075;28;20439;-67
2021/05/21 08:18:18;;;;;;;3.83;1.20;;;;;;;17.36;40.73;96047.94;5075436;28;20253;-66
2021/05/21 08:20:44;;;;;;;4.13;1.03;;;;;;;17.57;40.69;96036.06;5082439;28;20205;-65
2021/05/21 08:23:11;;;;;;;4.37;1.23;;;;;;;17.31;41.03;96032.72;5065931;28;20908;-66
2021/05/21 08:25:37;;;;;;;3.70;1.27;;;;;;;17.65;40.29;96032.28;5071279;28;20505;-67
2021/05/21 08:28:03;;;;;;;1.63;1.10;;;;;;;17.65;40.09;96025.13;5070759;28;20432;-67
2021/05/21 08:30:28;;;;;;;1.70;1.20;;;;;;;17.85;39.49;96024.03;5085474;28;20216;-68
2021/05/21 08:32:54;;;;;;;2.13;1.83;;;;;;;17.95;39.60;96013.69;5075360;28;20514;-67
2021/05/21 08:35:20;;;;;;;2.83;1.50;;;;;;;17.84;39.98;96021.59;5073220;28;20174;-65
2021/05/21 08:37:46;;;;;;;1.70;1.50;;;;;;;17.93;40.10;96021.03;5086785;28;20293;-66
2021/05/21 08:40:20;;;;;;;1.90;1.30;;;;;;;17.79;40.91;96020.44;5093949;28;20431;-67
2021/05/21 08:42:46;;;;;;;1.97;1.23;;;;;;;17.61;41.32;96016.03;5082783;28;20962;-66
2021/05/21 08:45:16;;;;;;;2.17;1.40;;;;;;;17.17;42.43;96012.75;5082368;28;20551;-67
2021/05/21 08:47:42;;;;;;;4.20;1.30;;;;;;;17.13;42.42;96007.09;5092953;28;20562;-67
2021/05/21 08:50:09;;;;;;;2.93;1.00;;;;;;;16.71;42.82;96001.66;5092081;28;20856;-66
2021/05/21 08:52:35;;;;;;;3.40;1.40;;;;;;;16.91;42.52;95998.78;5091879;28;20205;-65
2021/05/21 08:55:01;;;;;;;1.90;1.27;;;;;;;16.94;42.06;95993.06;5093195;28;20470;-66
2021/05/21 08:57:30;;;;;;;3.80;1.30;;;;;;;16.99;41.71;96011.75;5092335;28;20201;-66
2021/05/21 08:59:55;;;;;;;2.03;0.90;;;;;;;16.53;42.43;96005.94;5093986;28;20177;-67
2021/05/21 09:02:26;;;;;;;7.87;1.57;;;;;;;17.05;41.34;96023.28;5076719;28;20451;-66
2021/05/21 09:04:59;;;;;;;5.17;1.17;;;;;;;17.38;41.25;96024.69;5075491;28;20177;-66
2021/05/21 09:07:35;;;;;;;7.03;1.10;;;;;;;17.15;41.25;96036.81;5093708;28;20503;-68
2021/05/21 09:10:15;;;;;;;3.43;0.90;;;;;;;16.68;41.98;96037.28;5089778;28;20415;-66
2021/05/21 09:12:51;;;;;;;3.67;1.40;;;;;;;17.00;41.61;96034.53;5094433;28;20430;-66
2021/05/21 09:15:23;;;;;;;4.47;1.50;;;;;;;17.27;41.61;96049.28;5093243;28;20423;-69
2021/05/21 09:17:59;;;;;;;4.80;1.53;;;;;;;16.92;42.20;96037.44;5092443;28;20455;-67
2021/05/21 09:20:30;;;;;;;2.30;1.00;;;;;;;16.59;43.30;96059.78;5077773;28;20437;-67
2021/05/21 09:23:00;;;;;;;3.00;1.00;;;;;;;17.20;42.07;96081.13;5076338;28;20430;-66
2021/05/21 09:25:45;;;;;;;12.17;2.50;;;;;;;16.67;43.13;96078.00;5077414;28;20948;-67
2021/05/21 09:28:31;;;;;;;1.53;1.30;;;;;;;16.85;43.03;96085.13;5068942;28;20435;-66
2021/05/21 09:31:23;;;;;;;1.10;1.00;;;;;;;17.14;42.17;96074.06;5093724;28;20451;-68
2021/05/21 09:33:51;;;;;;;1.20;0.80;;;;;;;17.10;42.25;96068.41;5082158;28;20436;-65
2021/05/21 09:36:31;;;;;;;2.43;1.10;;;;;;;17.11;42.01;96062.09;5092215;28;20977;-66
2021/05/21 09:38:58;;;;;;;3.43;1.30;;;;;;;16.87;42.97;96077.00;5089852;28;20453;-68
2021/05/21 09:41:25;;;;;;;3.40;1.90;;;;;;;17.06;42.40;96058.50;5092060;28;20468;-67
2021/05/21 09:43:57;;;;;;;2.00;1.43;;;;;;;17.43;42.20;96059.28;5069788;28;20457;-66
2021/05/21 09:46:23;;;;;;;4.80;1.30;;;;;;;17.32;42.63;96047.59;5075441;28;20423;-67
2021/05/21 09:48:49;;;;;;;3.43;1.23;;;;;;;17.10;42.89;96043.78;5084168;28;20450;-67
2021/05/21 09:51:15;;;;;;;4.50;1.00;;;;;;;17.22;42.81;96034.06;5084850;28;20448;-67
2021/05/21 09:53:46;;;;;;;1.80;1.00;;;;;;;17.09;43.18;96045.63;5082564;28;20269;-66
2021/05/21 09:56:20;;;;;;;3.80;0.93;;;;;;;16.80;43.78;96071.78;5089476;28;20427;-66
2021/05/21 09:58:47;;;;;;;1.20;0.87;;;;;;;16.94;43.09;96075.09;5093301;28;20419;-66
2021/05/21 10:01:20;;;;;;;5.93;1.00;;;;;;;16.23;44.72;96062.13;5087294;28;20510;-67
2021/05/21 10:03:47;;;;;;;2.07;0.70;;;;;;;16.55;44.17;96069.16;5082447;28;20426;-67
2021/05/21 10:06:13;;;;;;;3.47;1.00;;;;;;;16.77;44.36;96081.97;5091846;28;20415;-67
2021/05/21 10:08:40;;;;;;;2.27;1.00;;;;;;;16.05;45.51;96101.72;5074744;28;20420;-67
2021/05/21 10:11:06;;;;;;;3.27;0.90;;;;;;;16.56;44.28;96102.50;5104322;28;20465;-67
2021/05/21 10:13:32;;;;;;;6.40;1.10;;;;;;;16.81;43.94;96093.72;5090189;28;20436;-66
2021/05/21 10:15:58;;;;;;;3.53;1.27;;;;;;;16.67;44.40;96093.06;5091014;28;20451;-67
2021/05/21 10:18:25;;;;;;;1.57;0.90;;;;;;;16.00;45.66;96101.53;5092808;28;20502;-67
2021/05/21 10:20:51;;;;;;;1.00;0.90;;;;;;;16.55;44.76;96090.31;5091037;28;20243;-65
2021/05/21 10:23:20;;;;;;;1.40;1.10;;;;;;;16.91;44.18;96085.31;5092520;28;20511;-65
2021/05/21 10:25:49;;;;;;;1.17;0.80;;;;;;;16.07;46.18;96095.19;5093176;28;20514;-67
2021/05/21 10:28:15;;;;;;;1.70;1.60;;;;;;;16.30;45.92;96096.44;5091121;28;20935;-69
2021/05/21 10:30:41;;;;;;;2.87;0.90;;;;;;;16.41;45.80;96092.28;5090800;28;20547;-67
2021/05/21 10:33:20;;;;;;;2.40;1.10;;;;;;;16.41;45.88;96090.44;5090083;28;20447;-67
2021/05/21 10:35:47;;;;;;;5.23;0.90;;;;;;;16.21;46.69;96100.38;5080765;28;20174;-66
2021/05/21 10:38:26;;;;;;;2.23;0.90;;;;;;;16.69;45.62;96102.41;5088873;28;20456;-66
2021/05/21 10:41:14;;;;;;;1.27;1.10;;;;;;;16.17;46.84;96109.75;5081358;28;20443;-67
2021/05/21 10:43:47;;;;;;;2.80;1.30;;;;;;;16.26;47.38;96100.50;5073012;28;20417;-66
2021/05/21 10:46:17;;;;;;;3.43;1.20;;;;;;;16.99;45.37;96101.72;5076963;28;20429;-67
2021/05/21 10:48:59;;;;;;;4.03;1.30;;;;;;;16.59;46.88;96096.81;5079386;28;20881;-67
2021/05/21 10:51:27;;;;;;;2.77;1.20;;;;;;;16.82;46.41;96096.16;5087679;28;20451;-64
2021/05/21 10:54:31;;;;;;;1.30;1.20;;;;;;;17.04;45.64;96099.22;5094450;28;20431;-66
2021/05/21 10:57:15;;;;;;;2.37;1.20;;;;;;;16.65;47.02;96100.41;5086931;28;20466;-67
2021/05/21 11:00:00;;;;;;;1.43;1.10;;;;;;;17.06;46.30;96106.97;5091349;28;20886;-66
2021/05/21 11:02:43;;;;;;;1.30;1.20;;;;;;;17.21;46.18;96114.53;5092489;28;20427;-66
2021/05/21 11:05:32;;;;;;;1.67;0.90;;;;;;;17.33;45.28;96115.41;5075684;28;20938;-66
2021/05/21 11:07:58;;;;;;;1.00;0.90;;;;;;;17.35;45.19;96110.69;5064149;28;20440;-66
2021/05/21 11:10:33;;;;;;;2.60;1.43;;;;;;;16.83;46.82;96120.78;5079162;28;20416;-66
2021/05/21 11:13:05;;;;;;;2.43;0.87;;;;;;;17.12;45.93;96132.53;5076585;28;20427;-67
2021/05/21 11:15:35;;;;;;;2.33;1.10;;;;;;;17.24;46.18;96122.03;5086490;28;20435;-68
2021/05/21 11:18:16;;;;;;;1.90;1.70;;;;;;;16.49;46.87;96128.22;5089580;28;20821;-66
2021/05/21 11:21:04;;;;;;;1.93;0.93;;;;;;;16.88;46.59;96128.88;5101781;28;20431;-67
2021/05/21 11:23:44;;;;;;;3.17;1.27;;;;;;;16.87;45.97;96116.69;5088606;28;20436;-67
2021/05/21 11:26:12;;;;;;;2.57;1.30;;;;;;;17.76;44.17;96104.88;5089350;28;20450;-65
2021/05/21 11:28:40;;;;;;;3.10;1.40;;;;;;;17.95;44.21;96119.69;5075946;28;20798;-66
2021/05/21 11:31:16;;;;;;;3.10;2.20;;;;;;;18.23;43.67;96120.97;5083345;28;20444;-66
2021/05/21 11:33:44;;;;;;;1.47;1.13;;;;;;;17.92;43.93;96117.50;5085138;28;20421;-67
2021/05/21 11:36:11;;;;;;;2.87;1.50;;;;;;;18.07;43.64;96135.69;5081345;28;20499;-67
2021/05/21 11:38:37;;;;;;;1.50;0.90;;;;;;;17.95;44.24;96119.69;5090721;28;20456;-65